createdAt,value
2023-04-25T00:02:16.101Z,34.95
2023-04-25T00:04:43.456Z,34.71
2023-04-25T00:07:10.374Z,34.44
2023-04-25T00:09:37.001Z,34.38
2023-04-25T00:12:03.600Z,34.33
2023-04-25T00:14:30.687Z,34.50
2023-04-25T00:16:57.223Z,34.58
2023-04-25T00:19:23.773Z,34.35
2023-04-25T00:21:50.964Z,34.57
2023-04-25T00:24:17.514Z,34.60
2023-04-25T00:26:44.023Z,34.34
2023-04-25T00:29:10.849Z,34.60
2023-04-25T00:31:39.283Z,34.07
2023-04-25T00:34:07.370Z,34.36
2023-04-25T00:36:33.912Z,34.44
2023-04-25T00:39:00.694Z,34.53
2023-04-25T00:41:28.015Z,34.35
2023-04-25T00:43:55.790Z,34.35
2023-04-25T00:46:22.558Z,34.67
2023-04-25T00:48:49.169Z,34.74
2023-04-25T00:51:18.060Z,34.20
2023-04-25T00:53:45.608Z,34.16
2023-04-25T00:56:12.189Z,34.67
2023-04-25T00:58:39.491Z,34.94
2023-04-25T01:01:07.907Z,34.84
2023-04-25T01:03:36.685Z,34.57
2023-04-25T01:06:03.969Z,34.66
2023-04-25T01:08:31.338Z,34.71
2023-04-25T01:10:57.849Z,34.88
2023-04-25T01:13:24.389Z,34.23
2023-04-25T01:15:51.341Z,34.39
2023-04-25T01:18:17.988Z,34.37
2023-04-25T01:20:44.944Z,34.50
2023-04-25T01:23:11.648Z,34.45
2023-04-25T01:25:38.599Z,34.52
2023-04-25T01:28:05.258Z,34.31
2023-04-25T01:30:32.639Z,34.57
2023-04-25T01:33:00.033Z,34.44
2023-04-25T01:35:28.945Z,34.78
2023-04-25T01:37:55.669Z,34.32
2023-04-25T01:40:23.526Z,34.54
2023-04-25T01:42:50.719Z,34.31
2023-04-25T01:45:18.043Z,34.88
2023-04-25T01:47:47.940Z,34.66
2023-04-25T01:50:14.541Z,34.75
2023-04-25T01:52:41.161Z,35.32
2023-04-25T01:55:08.742Z,34.99
2023-04-25T01:57:37.729Z,34.58
2023-04-25T02:00:07.786Z,34.31
2023-04-25T02:02:40.589Z,34.60
2023-04-25T02:05:29.968Z,34.51
2023-04-25T02:07:56.643Z,34.24
2023-04-25T02:10:25.608Z,34.07
2023-04-25T02:13:09.045Z,34.32
2023-04-25T02:15:55.929Z,34.30
2023-04-25T02:18:22.587Z,34.15
2023-04-25T02:20:49.155Z,34.08
2023-04-25T02:23:20.157Z,34.08
2023-04-25T02:25:46.787Z,34.20
2023-04-25T02:28:14.113Z,34.23
2023-04-25T02:30:40.624Z,34.09
2023-04-25T02:33:07.209Z,34.27
2023-04-25T02:35:33.741Z,34.37
2023-04-25T02:38:00.459Z,33.99
2023-04-25T02:40:27.054Z,34.50
2023-04-25T02:42:54.588Z,35.06
2023-04-25T02:45:21.103Z,35.09
2023-04-25T02:47:47.676Z,34.89
2023-04-25T02:50:14.217Z,35.03
2023-04-25T02:52:41.130Z,34.40
2023-04-25T02:55:15.629Z,34.64
2023-04-25T02:57:43.555Z,34.46
2023-04-25T03:00:15.328Z,34.61
2023-04-25T03:02:41.990Z,35.01
2023-04-25T03:05:08.646Z,34.79
2023-04-25T03:07:35.815Z,34.66
2023-04-25T03:10:02.487Z,34.63
2023-04-25T03:12:31.046Z,34.86
2023-04-25T03:14:57.577Z,34.69
2023-04-25T03:17:24.213Z,35.31
2023-04-25T03:19:50.856Z,34.75
2023-04-25T03:22:17.615Z,34.87
2023-04-25T03:24:44.231Z,34.54
2023-04-25T03:27:10.882Z,34.86
2023-04-25T03:29:37.667Z,34.87
2023-04-25T03:32:05.438Z,35.07
2023-04-25T03:34:32.067Z,34.85
2023-04-25T03:36:58.573Z,34.83
2023-04-25T03:39:25.129Z,35.03
2023-04-25T03:41:53.077Z,35.44
2023-04-25T03:44:20.677Z,35.41
2023-04-25T03:46:47.660Z,35.43
2023-04-25T03:49:15.969Z,35.65
2023-04-25T03:51:59.843Z,35.41
2023-04-25T03:54:26.525Z,35.53
2023-04-25T03:57:04.819Z,35.46
2023-04-25T03:59:34.437Z,35.31
2023-04-25T04:02:01.094Z,35.28
2023-04-25T04:04:28.942Z,35.93
2023-04-25T04:06:56.416Z,35.28
2023-04-25T04:09:26.868Z,35.20
2023-04-25T04:11:54.422Z,35.61
2023-04-25T04:14:20.941Z,35.59
2023-04-25T04:16:49.340Z,35.30
2023-04-25T04:19:15.932Z,35.73
2023-04-25T04:21:47.999Z,35.41
2023-04-25T04:24:15.947Z,35.40
2023-04-25T04:26:53.125Z,35.09
2023-04-25T04:29:46.271Z,35.52
2023-04-25T04:32:24.319Z,35.79
2023-04-25T04:34:50.911Z,35.20
2023-04-25T04:37:19.479Z,36.19
2023-04-25T04:39:46.601Z,35.93
2023-04-25T04:42:33.571Z,35.71
2023-04-25T04:45:15.182Z,35.93
2023-04-25T04:48:00.381Z,35.83
2023-04-25T04:50:47.142Z,35.45
2023-04-25T04:53:26.206Z,35.54
2023-04-25T04:56:11.246Z,35.34
2023-04-25T04:58:54.542Z,35.46
2023-04-25T05:01:41.439Z,36.13
2023-04-25T05:04:31.386Z,36.24
2023-04-25T05:07:04.574Z,35.86
2023-04-25T05:09:43.200Z,36.35
2023-04-25T05:12:20.053Z,35.90
2023-04-25T05:14:54.687Z,35.74
2023-04-25T05:17:33.781Z,36.12
2023-04-25T05:20:16.417Z,36.05
2023-04-25T05:23:01.701Z,36.20
2023-04-25T05:25:41.416Z,35.93
2023-04-25T05:28:21.725Z,35.96
2023-04-25T05:31:00.327Z,35.85
2023-04-25T05:33:30.341Z,35.59
2023-04-25T05:35:57.015Z,36.07
2023-04-25T05:38:25.834Z,35.85
2023-04-25T05:41:11.508Z,35.77
2023-04-25T05:43:58.670Z,35.96
2023-04-25T05:46:40.946Z,35.79
2023-04-25T05:49:13.512Z,35.93
2023-04-25T05:51:57.868Z,36.54
2023-04-25T05:54:43.100Z,36.07
2023-04-25T05:57:09.640Z,36.07
2023-04-25T05:59:36.833Z,36.31
2023-04-25T06:02:03.495Z,36.31
2023-04-25T06:04:33.395Z,36.47
2023-04-25T06:07:01.329Z,36.35
2023-04-25T06:09:27.887Z,36.40
2023-04-25T06:11:54.526Z,36.26
2023-04-25T06:14:21.164Z,36.27
2023-04-25T06:16:50.081Z,36.39
2023-04-25T06:19:16.628Z,36.34
2023-04-25T06:21:44.708Z,36.11
2023-04-25T06:24:11.378Z,36.61
2023-04-25T06:26:37.951Z,35.88
2023-04-25T06:29:04.873Z,36.23
2023-04-25T06:31:33.564Z,36.38
2023-04-25T06:34:00.504Z,36.21
2023-04-25T06:36:29.151Z,36.09
2023-04-25T06:39:01.982Z,35.88
2023-04-25T06:41:28.547Z,35.85
2023-04-25T06:43:59.796Z,36.05
2023-04-25T06:46:50.904Z,35.88
2023-04-25T06:49:17.520Z,36.35
2023-04-25T06:51:44.242Z,36.11
2023-04-25T06:54:10.901Z,36.18
2023-04-25T06:56:49.853Z,36.04
2023-04-25T06:59:16.523Z,36.11
2023-04-25T07:01:45.537Z,36.09
2023-04-25T07:04:16.975Z,35.89
2023-04-25T07:06:50.317Z,35.85
2023-04-25T07:09:20.398Z,36.04
2023-04-25T07:11:48.365Z,36.51
2023-04-25T07:14:16.017Z,36.67
2023-04-25T07:16:42.913Z,37.01
2023-04-25T07:19:10.598Z,36.97
2023-04-25T07:21:38.486Z,37.30
2023-04-25T07:24:06.504Z,37.05
2023-04-25T07:26:36.683Z,36.56
2023-04-25T07:29:23.765Z,36.94
2023-04-25T07:31:50.810Z,37.11
2023-04-25T07:34:17.347Z,36.77
2023-04-25T07:36:44.643Z,36.59
2023-04-25T07:39:11.837Z,36.62
2023-04-25T07:41:38.611Z,36.45
2023-04-25T07:44:06.087Z,36.65
2023-04-25T07:46:34.830Z,36.31
2023-04-25T07:49:01.528Z,35.91
2023-04-25T07:51:28.906Z,36.14
2023-04-25T07:53:59.091Z,35.74
2023-04-25T07:56:25.742Z,35.73
2023-04-25T07:58:53.388Z,36.04
2023-04-25T08:01:22.581Z,35.47
2023-04-25T08:04:01.954Z,35.47
2023-04-25T08:06:44.379Z,35.80
2023-04-25T08:09:18.784Z,35.41
2023-04-25T08:11:45.354Z,35.78
2023-04-25T08:14:15.073Z,34.95
2023-04-25T08:16:43.832Z,34.45
2023-04-25T08:19:11.981Z,32.89
2023-04-25T08:21:38.827Z,31.53
2023-04-25T08:24:09.621Z,30.98
2023-04-25T08:26:39.926Z,30.20
2023-04-25T08:29:07.652Z,30.32
2023-04-25T08:31:36.550Z,30.26
2023-04-25T08:34:04.607Z,29.93
2023-04-25T08:36:45.849Z,29.66
2023-04-25T08:39:23.378Z,29.58
2023-04-25T08:42:15.766Z,29.09
2023-04-25T08:44:42.358Z,28.67
2023-04-25T08:47:09.298Z,28.05
2023-04-25T08:49:46.215Z,27.59
2023-04-25T08:52:14.213Z,26.66
2023-04-25T08:54:44.579Z,26.04
2023-04-25T08:57:12.350Z,25.24
2023-04-25T08:59:41.513Z,24.24
2023-04-25T09:02:10.230Z,23.71
2023-04-25T09:04:36.882Z,22.79
2023-04-25T09:07:03.580Z,21.83
2023-04-25T09:09:30.408Z,22.23
2023-04-25T09:11:57.149Z,21.77
2023-04-25T09:14:26.904Z,20.22
2023-04-25T09:17:04.486Z,21.01
2023-04-25T09:19:52.707Z,21.33
2023-04-25T09:22:26.865Z,20.67
2023-04-25T09:24:53.388Z,20.58
2023-04-25T09:27:27.912Z,20.34
2023-04-25T09:30:13.067Z,20.77
2023-04-25T09:32:57.883Z,20.09
2023-04-25T09:35:27.024Z,19.92
2023-04-25T09:37:55.066Z,20.12
2023-04-25T09:40:50.452Z,20.44
2023-04-25T09:43:25.797Z,21.10
2023-04-25T09:45:55.275Z,21.53
2023-04-25T09:48:23.324Z,21.51
2023-04-25T09:51:06.371Z,21.57
2023-04-25T09:53:53.225Z,22.35
2023-04-25T09:56:42.892Z,22.48
2023-04-25T09:59:11.038Z,22.84
2023-04-25T10:01:41.366Z,22.56
2023-04-25T10:04:13.268Z,23.44
2023-04-25T10:06:53.344Z,23.54
2023-04-25T10:09:21.769Z,22.98
2023-04-25T10:11:51.513Z,23.32
2023-04-25T10:14:18.163Z,23.43
2023-04-25T10:16:44.902Z,23.22
2023-04-25T10:19:12.052Z,23.02
2023-04-25T10:21:47.682Z,23.22
2023-04-25T10:24:14.345Z,22.92
2023-04-25T10:26:41.279Z,23.02
2023-04-25T10:29:07.880Z,22.94
2023-04-25T10:31:35.404Z,22.87
2023-04-25T10:34:02.762Z,23.04
2023-04-25T10:36:32.941Z,22.54
2023-04-25T10:39:10.235Z,21.95
2023-04-25T10:41:54.432Z,22.17
2023-04-25T10:44:20.978Z,21.94
2023-04-25T10:46:47.993Z,22.28
2023-04-25T10:49:32.999Z,22.40
2023-04-25T10:52:25.885Z,22.45
2023-04-25T10:54:54.515Z,22.61
2023-04-25T10:57:32.898Z,22.94
2023-04-25T11:00:06.876Z,22.83
2023-04-25T11:02:38.202Z,22.80
2023-04-25T11:05:05.333Z,22.58
2023-04-25T11:10:45.237Z,22.57
2023-04-25T11:13:11.817Z,22.37
2023-04-25T11:15:38.361Z,22.39
2023-04-25T11:18:05.013Z,22.97
2023-04-25T11:20:31.807Z,23.29
2023-04-25T11:23:00.771Z,22.97
2023-04-25T11:25:27.382Z,23.21
2023-04-25T11:27:55.110Z,23.26
2023-04-25T11:30:22.304Z,23.11
2023-04-25T11:32:49.112Z,22.60
2023-04-25T11:35:16.459Z,22.62
2023-04-25T11:37:43.992Z,22.54
2023-04-25T11:40:11.404Z,22.43
2023-04-25T11:42:39.280Z,22.33
2023-04-25T11:45:07.051Z,22.61
2023-04-25T11:47:34.336Z,22.99
2023-04-25T11:50:02.122Z,22.59
2023-04-25T11:52:45.097Z,22.21
2023-04-25T11:55:14.896Z,22.34
2023-04-25T11:57:42.606Z,22.37
2023-04-25T12:00:16.548Z,22.52
2023-04-25T12:02:46.804Z,22.59
2023-04-25T12:05:30.252Z,22.92
2023-04-25T12:07:58.433Z,22.99
2023-04-25T12:10:26.654Z,22.89
2023-04-25T12:12:53.323Z,23.21
2023-04-25T12:15:26.113Z,22.22
2023-04-25T12:17:54.781Z,22.34
2023-04-25T12:20:32.576Z,22.40
2023-04-25T12:22:59.160Z,22.35
2023-04-25T12:25:43.005Z,21.92
2023-04-25T12:28:24.912Z,22.04
2023-04-25T12:30:58.812Z,21.97
2023-04-25T12:33:27.136Z,22.27
2023-04-25T12:35:54.611Z,22.10
2023-04-25T12:38:28.352Z,22.52
2023-04-25T12:40:55.523Z,22.42
2023-04-25T12:43:22.862Z,22.43
2023-04-25T12:45:53.747Z,22.39
2023-04-25T12:48:21.147Z,22.44
2023-04-25T12:50:50.785Z,22.55
2023-04-25T12:53:18.053Z,22.43
2023-04-25T12:55:46.974Z,22.23
2023-04-25T12:58:14.718Z,22.43
2023-04-25T13:00:41.284Z,22.61
2023-04-25T13:03:08.001Z,22.33
2023-04-25T13:05:34.698Z,22.45
2023-04-25T13:08:01.291Z,22.59
2023-04-25T13:10:27.878Z,22.68
2023-04-25T13:12:54.490Z,22.68
2023-04-25T13:15:21.474Z,22.67
2023-04-25T13:17:48.129Z,22.38
2023-04-25T13:20:15.955Z,22.28
2023-04-25T13:22:43.337Z,21.85
2023-04-25T13:25:09.909Z,22.16
2023-04-25T13:27:38.089Z,21.66
2023-04-25T13:30:08.308Z,21.99
2023-04-25T13:32:37.091Z,21.97
2023-04-25T13:35:12.028Z,21.85
2023-04-25T13:37:39.528Z,21.53
2023-04-25T13:40:10.134Z,21.75
2023-04-25T13:42:37.399Z,21.40
2023-04-25T13:45:04.068Z,21.54
2023-04-25T13:47:31.515Z,21.81
2023-04-25T13:49:58.272Z,22.00
2023-04-25T13:52:28.364Z,21.82
2023-04-25T13:54:54.989Z,22.13
2023-04-25T13:57:21.722Z,22.03
2023-04-25T13:59:48.235Z,22.18
2023-04-25T14:02:14.819Z,22.46
2023-04-25T14:04:42.073Z,22.63
2023-04-25T14:07:09.470Z,22.75
2023-04-25T14:09:36.222Z,23.16
2023-04-25T14:12:03.168Z,23.46
2023-04-25T14:14:29.820Z,23.62
2023-04-25T14:16:58.050Z,23.09
2023-04-25T14:19:25.350Z,22.91
2023-04-25T14:21:51.940Z,23.09
2023-04-25T14:24:18.501Z,23.79
2023-04-25T14:26:45.071Z,23.34
2023-04-25T14:29:13.111Z,23.24
2023-04-25T14:31:41.224Z,23.41
2023-04-25T14:34:08.460Z,23.76
2023-04-25T14:36:36.130Z,23.74
2023-04-25T14:39:02.884Z,23.87
2023-04-25T14:41:29.433Z,23.94
2023-04-25T14:43:57.823Z,24.47
2023-04-25T14:46:24.615Z,24.39
2023-04-25T14:48:51.686Z,24.44
2023-04-25T14:51:18.290Z,23.96
2023-04-25T14:53:45.199Z,23.94
2023-04-25T14:56:11.740Z,24.40
2023-04-25T14:58:39.895Z,23.63
2023-04-25T15:01:07.805Z,23.88
2023-04-25T15:03:34.621Z,24.21
2023-04-25T15:06:01.469Z,24.44
2023-04-25T15:08:28.065Z,24.38
2023-04-25T15:10:54.598Z,24.53
2023-04-25T15:13:21.307Z,24.51
2023-04-25T15:15:52.229Z,24.27
2023-04-25T15:18:19.323Z,23.44
2023-04-25T15:20:45.855Z,24.29
2023-04-25T15:23:12.461Z,24.43
2023-04-25T15:25:38.971Z,24.30
2023-04-25T15:28:05.672Z,24.38
2023-04-25T15:30:32.214Z,24.93
2023-04-25T15:32:58.897Z,24.65
2023-04-25T15:35:25.567Z,24.41
2023-04-25T15:37:52.232Z,24.18
2023-04-25T15:40:18.815Z,24.49
2023-04-25T15:42:51.700Z,24.68
2023-04-25T15:45:20.079Z,24.45
2023-04-25T15:47:46.761Z,24.45
2023-04-25T15:50:17.402Z,24.48
2023-04-25T15:52:43.990Z,24.16
2023-04-25T15:55:11.162Z,24.28
2023-04-25T15:57:37.834Z,24.31
2023-04-25T16:00:17.427Z,24.34
2023-04-25T16:02:45.136Z,24.37
2023-04-25T16:05:13.155Z,24.78
2023-04-25T16:07:41.633Z,24.67
2023-04-25T16:10:09.252Z,24.51
2023-04-25T16:12:36.297Z,24.14
2023-04-25T16:15:03.345Z,24.29
2023-04-25T16:17:30.181Z,24.13
2023-04-25T16:19:57.093Z,24.47
2023-04-25T16:22:23.672Z,24.24
2023-04-25T16:24:50.419Z,24.58
2023-04-25T16:27:17.003Z,24.67
2023-04-25T16:29:43.606Z,24.99
2023-04-25T16:32:11.559Z,25.18
2023-04-25T16:34:38.076Z,25.22
2023-04-25T16:37:04.829Z,25.16
2023-04-25T16:39:31.342Z,25.13
2023-04-25T16:41:57.936Z,25.23
2023-04-25T16:44:24.616Z,25.19
2023-04-25T16:46:51.311Z,25.31
2023-04-25T16:49:17.844Z,25.51
2023-04-25T16:51:46.386Z,25.63
2023-04-25T16:54:13.205Z,25.32
2023-04-25T16:56:39.759Z,25.23
2023-04-25T16:59:06.395Z,24.65
2023-04-25T17:01:33.058Z,24.29
2023-04-25T17:04:00.043Z,24.51
2023-04-25T17:06:27.207Z,24.82
2023-04-25T17:08:54.008Z,24.75
2023-04-25T17:11:20.824Z,24.93
2023-04-25T17:13:47.347Z,24.62
2023-04-25T17:16:16.761Z,24.70
2023-04-25T17:18:43.939Z,24.83
2023-04-25T17:21:10.602Z,24.87
2023-04-25T17:23:37.563Z,25.28
2023-04-25T17:26:04.084Z,25.25
2023-04-25T17:28:31.056Z,25.16
2023-04-25T17:30:58.722Z,25.14
2023-04-25T17:33:27.084Z,25.48
2023-04-25T17:35:54.330Z,25.39
2023-04-25T17:38:21.097Z,25.26
2023-04-25T17:40:47.896Z,25.69
2023-04-25T17:43:14.465Z,25.32
2023-04-25T17:45:41.241Z,25.78
2023-04-25T17:48:08.483Z,26.17
2023-04-25T17:50:35.204Z,25.80
2023-04-25T17:53:03.685Z,26.18
2023-04-25T17:55:30.722Z,26.25
2023-04-25T17:57:57.251Z,26.36
2023-04-25T18:00:23.800Z,26.54
2023-04-25T18:02:52.071Z,26.41
2023-04-25T18:05:19.376Z,26.71
2023-04-25T18:07:46.273Z,27.06
2023-04-25T18:10:12.873Z,26.99
2023-04-25T18:12:39.487Z,26.96
2023-04-25T18:15:06.990Z,27.30
2023-04-25T18:17:34.912Z,27.35
2023-04-25T18:20:01.915Z,27.61
2023-04-25T18:22:28.884Z,28.17
2023-04-25T18:24:55.524Z,28.68
2023-04-25T18:27:22.078Z,28.67
2023-04-25T18:29:48.651Z,28.87
2023-04-25T18:32:15.227Z,29.12
2023-04-25T18:34:43.794Z,29.67
2023-04-25T18:37:12.985Z,29.23
2023-04-25T18:39:40.644Z,29.59
2023-04-25T18:42:08.384Z,29.35
2023-04-25T18:44:39.812Z,28.99
2023-04-25T18:47:10.330Z,29.41
2023-04-25T18:49:37.628Z,28.81
2023-04-25T18:52:04.962Z,29.16
2023-04-25T18:54:32.162Z,29.23
2023-04-25T18:57:00.980Z,28.98
2023-04-25T18:59:27.777Z,29.12
2023-04-25T19:01:54.416Z,28.90
2023-04-25T19:04:21.464Z,29.02
2023-04-25T19:06:51.066Z,28.88
2023-04-25T19:09:18.348Z,28.61
2023-04-25T19:11:44.870Z,29.15
2023-04-25T19:14:13.115Z,28.94
2023-04-25T19:16:39.713Z,28.99
2023-04-25T19:19:07.285Z,29.08
2023-04-25T19:21:33.883Z,29.15
2023-04-25T19:24:01.960Z,29.07
2023-04-25T19:26:28.551Z,28.58
2023-04-25T19:29:05.951Z,28.78
2023-04-25T19:31:34.169Z,28.80
2023-04-25T19:34:00.757Z,28.74
2023-04-25T19:36:28.438Z,28.89
2023-04-25T19:38:54.970Z,28.68
2023-04-25T19:41:21.467Z,28.51
2023-04-25T19:43:48.151Z,28.93
2023-04-25T19:46:14.774Z,28.78
2023-04-25T19:48:41.520Z,28.96
2023-04-25T19:51:09.067Z,28.66
2023-04-25T19:53:35.683Z,28.91
2023-04-25T19:56:02.258Z,28.92
2023-04-25T19:58:29.768Z,28.96
2023-04-25T20:00:57.627Z,28.77
2023-04-25T20:03:24.533Z,28.90
2023-04-25T20:05:51.243Z,28.42
2023-04-25T20:08:17.751Z,28.83
2023-04-25T20:10:44.311Z,28.87
2023-04-25T20:13:11.725Z,29.04
2023-04-25T20:15:38.492Z,28.69
2023-04-25T20:18:05.036Z,28.86
2023-04-25T20:20:31.673Z,29.17
2023-04-25T20:22:58.189Z,29.49
2023-04-25T20:25:25.036Z,29.44
2023-04-25T20:27:51.573Z,29.33
2023-04-25T20:30:18.518Z,29.60
2023-04-25T20:32:45.262Z,29.62
2023-04-25T20:35:13.128Z,29.59
2023-04-25T20:37:39.659Z,30.25
2023-04-25T20:40:09.437Z,29.99
2023-04-25T20:42:36.316Z,30.01
2023-04-25T20:45:07.573Z,29.95
2023-04-25T20:47:34.847Z,30.13
2023-04-25T20:50:03.996Z,30.27
2023-04-25T20:52:31.889Z,30.42
2023-04-25T20:54:58.695Z,30.51
2023-04-25T20:57:25.851Z,30.62
2023-04-25T20:59:52.901Z,30.48
2023-04-25T21:02:20.049Z,30.41
2023-04-25T21:04:46.716Z,30.57
2023-04-25T21:07:13.874Z,30.94
2023-04-25T21:09:41.773Z,30.82
2023-04-25T21:12:08.431Z,30.80
2023-04-25T21:14:34.959Z,30.60
2023-04-25T21:17:01.636Z,30.42
2023-04-25T21:19:28.741Z,30.29
2023-04-25T21:21:55.278Z,30.41
2023-04-25T21:24:21.975Z,30.43
2023-04-25T21:26:48.512Z,30.56
2023-04-25T21:29:15.031Z,30.61
2023-04-25T21:31:42.317Z,30.63
2023-04-25T21:34:08.936Z,30.45
2023-04-25T21:36:35.539Z,30.48
2023-04-25T21:39:02.361Z,30.79
2023-04-25T21:41:28.964Z,30.93
2023-04-25T21:43:55.925Z,30.78
2023-04-25T21:46:24.490Z,31.42
2023-04-25T21:48:51.570Z,30.96
2023-04-25T21:51:18.699Z,31.38
2023-04-25T21:53:45.222Z,31.38
2023-04-25T21:56:12.427Z,31.37
2023-04-25T21:58:39.057Z,31.65
2023-04-25T22:01:05.598Z,31.51
2023-04-25T22:03:32.837Z,31.27
2023-04-25T22:05:59.589Z,31.70
2023-04-25T22:08:26.097Z,31.43
2023-04-25T22:10:55.047Z,31.47
2023-04-25T22:13:22.633Z,31.80
2023-04-25T22:15:49.280Z,31.49
2023-04-25T22:18:16.438Z,31.05
2023-04-25T22:20:44.098Z,31.22
2023-04-25T22:23:12.185Z,31.10
2023-04-25T22:25:38.808Z,31.11
2023-04-25T22:28:05.410Z,31.34
2023-04-25T22:30:32.404Z,31.17
2023-04-25T22:32:59.007Z,30.75
2023-04-25T22:35:25.647Z,31.09
2023-04-25T22:37:52.390Z,30.96
2023-04-25T22:40:19.004Z,31.10
2023-04-25T22:42:45.586Z,31.12
2023-04-25T22:45:12.239Z,31.06
2023-04-25T22:47:39.662Z,31.10
2023-04-25T22:50:08.585Z,31.37
2023-04-25T22:52:35.378Z,30.92
2023-04-25T22:55:04.913Z,31.44
2023-04-25T22:57:31.447Z,31.73
2023-04-25T22:59:58.028Z,31.37
2023-04-25T23:02:28.004Z,31.67
2023-04-25T23:04:55.004Z,31.80
2023-04-25T23:07:21.664Z,32.01
2023-04-25T23:09:48.298Z,32.13
2023-04-25T23:12:18.040Z,32.02
2023-04-25T23:14:48.689Z,32.48
2023-04-25T23:17:15.228Z,32.55
2023-04-25T23:19:42.216Z,32.18
2023-04-25T23:22:09.449Z,32.30
2023-04-25T23:24:39.160Z,32.67
2023-04-25T23:27:05.762Z,32.30
2023-04-25T23:29:34.087Z,33.17
2023-04-25T23:32:03.614Z,32.66
2023-04-25T23:34:33.284Z,32.82
2023-04-25T23:37:01.532Z,32.79
2023-04-25T23:39:28.306Z,32.92
2023-04-25T23:41:54.843Z,32.99
2023-04-25T23:44:21.402Z,33.04
2023-04-25T23:46:48.436Z,33.25
2023-04-25T23:49:15.153Z,33.17
2023-04-25T23:51:41.685Z,33.33
2023-04-25T23:54:08.428Z,32.83
2023-04-25T23:56:34.982Z,33.46
2023-04-25T23:59:01.511Z,33.59
